• Join FlightAware (Why Join?)
  • Login
  • US Flag 
05:18AM EDT


 

Airport Tracker/Info


-or-


 

Live Flight TrackerFlight Track Log ✈ UAL1 ✈ 08-Apr-2013 ✈ KIAH - PHNL

Flight Track Log - Related Links

Times and Time Zones

All times are in EDT time to prevent confusion due to time zone crossing. See the UAL1 flight status page for this flight to view local times or setup timezone preferences in your user account.

Time Position Orientation Groundspeed Altitude Reporting Facility
EDT Latitude Longitude Course Direction KTS MPH feet Rate Location/Type
11:02AM 29.9555 -95.3390 235° Southwest 180 207 1,000  Level FlightAware ADS-B
11:02AM 29.9500 -95.3389 179° South 181 208 1,300 2,700 Climbing FlightAware ADS-B
11:02AM 29.9458 -95.3401 194° South 186 214 1,500 1,500 Climbing FlightAware ADS-B
11:02AM 29.9434 -95.3413 203° Southwest 190 219 1,500 840 Level FlightAware ADS-B
11:02AM 29.9401 -95.3437 212° Southwest 198 228 1,600 1,500 Climbing FlightAware ADS-B
11:02AM 29.9376 -95.3461 220° Southwest 206 237 1,700 1,680 Climbing FlightAware ADS-B
11:02AM 29.9355 -95.3489 229° Southwest 209 241 1,800 1,380 Climbing FlightAware ADS-B
11:02AM 29.9299 -95.3576 233° Southwest 219 252 2,000 1,380 Climbing FlightAware ADS-B
11:02AM 29.9261 -95.3645 238° Southwest 228 262 2,200 1,860 Climbing FlightAware ADS-B
11:03AM 29.9175 -95.3807 239° Southwest 232 267 2,700 2,220 Climbing FlightAware ADS-B
11:03AM 29.9050 -95.4055 240° Southwest 240 276 3,600 2,640 Climbing FlightAware ADS-B
11:03AM 29.8961 -95.4224 239° Southwest 236 272 4,400 3,420 Climbing FlightAware ADS-B
11:03AM 29.8934 -95.4281 241° Southwest 234 269 4,800 3,780 Climbing FlightAware ADS-B
11:03AM 29.8908 -95.4349 246° West 233 268 5,100 3,420 Climbing FlightAware ADS-B
11:03AM 29.8903 -95.4360 242° Southwest 234 269 5,200 1,980 Climbing FlightAware ADS-B
11:04AM 29.8888 -95.4419 254° West 241 277 5,300 1,320 Climbing FlightAware ADS-B
11:04AM 29.8881 -95.4464 260° West 247 284 5,400 1,800 Climbing FlightAware ADS-B
11:04AM 29.8876 -95.4551 266° West 255 293 5,600 1,620 Climbing FlightAware ADS-B
11:04AM 29.8876 -95.4621 270° West 263 303 5,700 960 Climbing FlightAware ADS-B
11:04AM 29.8878 -95.4635 279° West 263 303 5,700 1,980 Level FlightAware ADS-B
11:04AM 29.8884 -95.4700 276° West 268 308 5,900 2,640 Climbing FlightAware ADS-B
11:04AM 29.8894 -95.4759 281° West 270 311 6,100 3,240 Climbing FlightAware ADS-B
11:04AM 29.8920 -95.4856 287° West 274 315 6,500 3,480 Climbing FlightAware ADS-B
11:04AM 29.8943 -95.4930 290° West 273 314 6,800 3,000 Climbing FlightAware ADS-B
11:04AM 29.8973 -95.5020 291° West 271 312 7,100 2,220 Climbing FlightAware ADS-B
11:04AM 29.8978 -95.5034 292° West 272 313 7,100 1,500 Level FlightAware ADS-B
11:05AM 29.9040 -95.5238 289° West 283 326 7,500 1,860 Climbing FlightAware ADS-B
11:05AM 29.9048 -95.5263 290° West 283 326 7,600 2,280 Climbing FlightAware ADS-B
11:05AM 29.9100 -95.5429 290° West 286 329 8,000 2,460 Climbing FlightAware ADS-B
11:05AM 29.9122 -95.5499 290° West 285 328 8,300 3,180 Climbing FlightAware ADS-B
11:05AM 29.9168 -95.5649 289° West 285 328 8,800 2,460 Climbing FlightAware ADS-B
11:05AM 29.9199 -95.5747 290° West 285 328 9,000 2,220 Climbing FlightAware ADS-B
11:05AM 29.9237 -95.5875 289° West 287 330 9,400 2,460 Climbing FlightAware ADS-B
11:05AM 29.9272 -95.5989 290° West 288 331 9,700 2,220 Climbing FlightAware ADS-B
11:06AM 29.9303 -95.6102 288° West 289 333 10,000 2,100 Climbing FlightAware ADS-B
11:06AM 29.9358 -95.6284 289° West 293 337 10,400 1,800 Climbing FlightAware ADS-B
11:06AM 29.9407 -95.6444 289° West 303 349 10,700 1,140 Climbing FlightAware ADS-B
11:06AM 29.9507 -95.6761 290° West 321 369 11,000 960 Climbing FlightAware ADS-B
11:06AM 29.9567 -95.6947 290° West 334 384 11,200 1,200 Climbing FlightAware ADS-B
11:07AM 29.9695 -95.7354 290° West 350 403 11,700 1,140 Climbing FlightAware ADS-B
11:07AM 29.9735 -95.7484 290° West 363 418 11,800 1,200 Climbing FlightAware ADS-B
11:07AM 29.9899 -95.8010 290° West 387 445 12,400 1,200 Climbing FlightAware ADS-B
11:07AM 29.9913 -95.8056 289° West 389 448 12,400 1,860 Level FlightAware ADS-B
11:08AM 30.0098 -95.8654 290° West 400 460 13,400 2,160 Climbing FlightAware ADS-B
11:08AM 30.0287 -95.9267 290° West 406 467 14,600 2,460 Climbing FlightAware ADS-B
11:09AM 30.0324 -95.9391 289° West 407 468 14,900 2,280 Climbing FlightAware ADS-B
11:09AM 30.0477 -95.9888 290° West 413 475 15,800 2,160 Climbing FlightAware ADS-B
11:09AM 30.0599 -96.0288 289° West 416 479 16,500 2,100 Climbing FlightAware ADS-B
11:09AM 30.0652 -96.0484 287° West 419 482 16,800 2,100 Climbing FlightAware ADS-B
11:10AM 30.0784 -96.1142 283° West 423 487 17,900 2,220 Climbing FlightAware ADS-B
11:10AM 30.0789 -96.1174 280° West 424 488 18,000 2,160 Climbing FlightAware ADS-B
11:10AM 30.0890 -96.1812 280° West 428 493 19,000 2,160 Climbing FlightAware ADS-B
11:10AM 30.0897 -96.1865 279° West 428 493 19,100 2,100 Climbing FlightAware ADS-B
11:11AM 30.0993 -96.2499 280° West 430 495 20,100 2,280 Climbing FlightAware ADS-B
11:11AM 30.1041 -96.2812 280° West 428 493 20,700 2,160 Climbing FlightAware ADS-B
11:11AM 30.1096 -96.3176 280° West 431 496 21,200 1,920 Climbing FlightAware ADS-B
11:12AM 30.1147 -96.3508 280° West 432 497 21,700 1,980 Climbing FlightAware ADS-B
11:12AM 30.1201 -96.3878 280° West 435 501 22,200 1,680 Climbing FlightAware ADS-B
11:12AM 30.1279 -96.4376 280° West 437 503 22,800 1,740 Climbing FlightAware ADS-B
11:12AM 30.1309 -96.4584 279° West 439 505 23,100 1,800 Climbing FlightAware ADS-B
11:13AM 30.1392 -96.5128 280° West 442 509 23,800 1,560 Climbing FlightAware ADS-B
11:13AM 30.1415 -96.5282 280° West 443 510 23,900 1,440 Climbing FlightAware ADS-B
11:14AM 30.1524 -96.6004 280° West 449 517 24,700 1,620 Climbing FlightAware ADS-B
11:14AM 30.1531 -96.6044 281° West 446 513 24,800 1,380 Climbing FlightAware ADS-B
11:14AM 30.1632 -96.6722 280° West 455 524 25,400 1,260 Climbing FlightAware ADS-B
11:14AM 30.1649 -96.6830 280° West 455 524 25,500 1,500 Climbing FlightAware ADS-B
11:15AM 30.1740 -96.7447 280° West 456 525 26,200 1,740 Climbing FlightAware ADS-B
11:15AM 30.1816 -96.7952 280° West 456 525 26,900 1,980 Climbing FlightAware ADS-B
11:15AM 30.1850 -96.8174 280° West 453 521 27,200 1,980 Climbing FlightAware ADS-B
11:15AM 30.1922 -96.8667 280° West 453 521 27,900 1,920 Climbing FlightAware ADS-B
11:16AM 30.1957 -96.8904 280° West 450 518 28,200 1,560 Climbing FlightAware ADS-B
11:16AM 30.2028 -96.9388 280° West 450 518 28,700 1,560 Climbing FlightAware ADS-B
11:16AM 30.2063 -96.9622 280° West 450 518 29,000 1,560 Climbing FlightAware ADS-B
11:17AM 30.2170 -97.0342 280° West 448 516 29,800 960 Climbing FlightAware ADS-B
11:17AM 30.2276 -97.1059 280° West 450 518 30,000 300 Climbing FlightAware ADS-B
11:17AM 30.2301 -97.1238 279° West 450 518 30,000  Level FlightAware ADS-B
11:18AM 30.2380 -97.1778 280° West 450 518 30,000  Level FlightAware ADS-B
11:18AM 30.2482 -97.2488 279° West 448 516 30,000  Level FlightAware ADS-B
11:19AM 30.2588 -97.3206 280° West 445 512 30,000  Level FlightAware ADS-B
11:19AM 30.2634 -97.3538 279° West 444 511 30,000  Level FlightAware ADS-B
11:19AM 30.2688 -97.3907 280° West 443 510 30,000  Level FlightAware ADS-B
11:19AM 30.2751 -97.4343 280° West 442 509 30,000  Level FlightAware ADS-B
11:20AM 30.2792 -97.4633 279° West 440 506 30,000  Level FlightAware ADS-B
11:20AM 30.2928 -97.5576 280° West 438 504 30,000  Level FlightAware ADS-B
11:21AM 30.3018 -97.6190 280° West 437 503 30,000  Level FlightAware ADS-B
11:21AM 30.2863 -97.5117 99° East 441 507 30,000  Level FlightAware ADS-B
11:21AM 30.3141 -97.6867 280° West 438 504 30,000  Level FlightAware ADS-B
11:21AM 30.3150 -97.6909 284° West 438 504 30,000  Level FlightAware ADS-B
11:22AM 30.3238 -97.7338 283° West 439 505 30,000  Level FlightAware ADS-B
11:22AM 30.3376 -97.7968 284° West 439 505 30,000 240 Level FlightAware ADS-B
11:22AM 30.3488 -97.8452 285° West 442 509 30,200 720 Climbing FlightAware ADS-B
11:23AM 30.3535 -97.8657 285° West 442 509 30,400 1,260 Climbing FlightAware ADS-B
11:23AM 30.3660 -97.9201 285° West 442 509 30,900 60 Climbing FlightAware ADS-B
11:23AM 30.3567 -97.8796 105° East 442 509 30,500 1,380 Descending FlightAware ADS-B
11:24AM 30.3888 -98.0193 285° West 442 509 31,900 3,000 Climbing FlightAware ADS-B
11:24AM 30.3977 -98.0585 285° West 439 505 32,000 120 Climbing FlightAware ADS-B
11:24AM 30.4131 -98.1270 285° West 435 501 32,000  Level FlightAware ADS-B
11:25AM 30.4302 -98.2037 285° West 432 497 32,000  Level FlightAware ADS-B
11:26AM 30.4452 -98.2712 284° West 432 497 32,000  Level FlightAware ADS-B
11:26AM 30.4525 -98.3037 285° West 433 498 32,000  Level FlightAware ADS-B
11:27AM 30.4760 -98.4110 284° West 435 501 32,000  Level FlightAware
11:27AM 30.4950 -98.4980 284° West 436 502 32,000  Level FlightAware
11:28AM 30.5180 -98.6020 284° West 437 503 32,000  Level FlightAware
11:29AM 30.5380 -98.6920 284° West 437 503 32,000  Level FlightAware
11:29AM 30.5580 -98.7830 284° West 437 503 32,000  Level FlightAware
11:30AM 30.5800 -98.8830 284° West 437 503 32,000  Level FlightAware
11:31AM 30.6000 -98.9770 284° West 436 502 32,000  Level FlightAware
11:31AM 30.6220 -99.0780 284° West 435 501 32,000  Level FlightAware
11:32AM 30.6410 -99.1680 284° West 436 502 32,000  Level FlightAware
11:33AM 30.6600 -99.2580 284° West 435 501 32,000  Level FlightAware
11:34AM 30.6820 -99.3580 284° West 434 499 32,000  Level FlightAware
11:34AM 30.7020 -99.4520 284° West 433 498 32,000  Level FlightAware
11:35AM 30.7230 -99.5520 284° West 432 497 32,000  Level FlightAware
11:36AM 30.7420 -99.6420 284° West 431 496 32,000  Level FlightAware
11:36AM 30.7610 -99.7300 284° West 430 495 32,000  Level FlightAware
11:37AM 30.7830 -99.8350 284° West 428 493 32,000  Level FlightAware
11:38AM 30.8010 -99.9240 283° West 428 493 32,000  Level FlightAware
11:38AM 30.8200 -100.0130 284° West 428 493 32,000  Level FlightAware
11:39AM 30.8400 -100.1110 283° West 428 493 32,000  Level FlightAware
11:40AM 30.8590 -100.2020 284° West 429 494 32,000  Level FlightAware
11:40AM 30.8770 -100.2910 283° West 431 496 32,000  Level FlightAware
11:41AM 30.8980 -100.3910 284° West 431 496 32,000  Level FlightAware
11:42AM 30.9170 -100.4860 283° West 432 497 32,000  Level FlightAware
11:43AM 30.9370 -100.5840 283° West 432 497 32,000  Level FlightAware
11:43AM 30.9560 -100.6770 283° West 432 497 32,000  Level FlightAware
11:44AM 30.9740 -100.7660 283° West 433 498 32,000  Level FlightAware
11:45AM 30.9950 -100.8690 283° West 433 498 32,000  Level FlightAware
11:45AM 31.0140 -100.9620 283° West 434 499 32,000  Level FlightAware
11:46AM 31.0330 -101.0610 283° West 434 499 32,000  Level FlightAware
11:47AM 31.0510 -101.1510 283° West 433 498 32,000  Level FlightAware
11:47AM 31.0700 -101.2430 284° West 434 499 32,000  Level FlightAware
11:48AM 31.0880 -101.3350 283° West 433 498 32,000  Level FlightAware
11:49AM 31.1100 -101.4490 283° West 434 499 32,000  Level FlightAware
11:50AM 31.1280 -101.5410 283° West 435 501 32,000  Level FlightAware
11:50AM 31.1490 -101.6450 283° West 435 501 32,000  Level FlightAware
11:51AM 31.1650 -101.7300 282° West 435 501 32,000  Level FlightAware
11:52AM 31.1830 -101.8260 282° West 435 501 32,000  Level FlightAware
11:52AM 31.2010 -101.9170 283° West 435 501 32,000  Level FlightAware
11:53AM 31.2180 -102.0050 283° West 434 499 32,000  Level FlightAware
11:54AM 31.2400 -102.1220 282° West 432 497 32,000  Level FlightAware
11:54AM 31.2560 -102.2050 283° West 431 496 32,000  Level FlightAware
11:55AM 31.2750 -102.3040 283° West 431 496 32,000  Level FlightAware
11:56AM 31.2940 -102.4090 282° West 429 494 32,000  Level FlightAware
11:57AM 31.3120 -102.5060 282° West 429 494 32,000  Level FlightAware
11:58AM 31.3260 -102.5830 282° West 429 494 32,000  Level FlightAware
11:58AM 31.3400 -102.6600 282° West 429 494 32,000  Level FlightAware
11:59AM 31.3540 -102.7370 282° West 429 494 32,000  Level FlightAware
12:00PM 31.3710 -102.8340 282° West 429 494 32,000  Level FlightAware
12:00PM 31.3850 -102.9110 282° West 429 494 32,000  Level FlightAware
12:01PM 31.3990 -102.9890 282° West 429 494 32,000  Level FlightAware
12:02PM 31.4130 -103.0660 282° West 429 494 32,000  Level FlightAware
12:02PM 31.4270 -103.1430 282° West 429 494 32,000  Level FlightAware
12:03PM 31.4410 -103.2210 282° West 429 494 32,000  Level FlightAware
12:04PM 31.4590 -103.3170 282° West 429 494 32,000  Level FlightAware
12:05PM 31.4730 -103.3950 282° West 429 494 32,000  Level FlightAware
12:05PM 31.4870 -103.4720 282° West 429 494 32,000  Level FlightAware
12:06PM 31.5400 -103.7806 282° West 432 497 32,000  Level Albuquerque Center
12:07PM 31.5644 -103.9167 282° West 429 494 32,000 -60 Level Albuquerque Center
12:08PM 31.5881 -104.0533 281° West 430 495 31,900  Descending Albuquerque Center
12:09PM 31.6161 -104.2153 282° West 426 490 32,000  Climbing Albuquerque Center
12:10PM 31.6408 -104.3514 282° West 427 491 32,000  Level Albuquerque Center
12:11PM 31.6639 -104.4886 281° West 429 494 32,000  Level Albuquerque Center
12:12PM 31.6869 -104.6250 281° West 429 494 32,000 -60 Level Albuquerque Center
12:13PM 31.7100 -104.7617 281° West 429 494 31,900 -60 Descending Albuquerque Center
12:15PM 31.7367 -104.9253 281° West 429 494 31,900  Level Albuquerque Center
12:16PM 31.7583 -105.0606 281° West 428 493 32,000  Climbing Albuquerque Center
12:17PM 31.7806 -105.1919 281° West 421 484 32,000  Level Albuquerque Center
12:18PM 31.8025 -105.3269 281° West 422 486 32,000  Level Albuquerque Center
12:19PM 31.8236 -105.4608 281° West 419 482 32,000 -60 Level Albuquerque Center
12:20PM 31.8456 -105.5953 281° West 419 482 31,900  Descending Albuquerque Center
12:21PM 31.8714 -105.7544 281° West 416 479 32,000  Climbing Albuquerque Center
12:26PM 32.0130 -106.5000 281° West 414 476 32,000  Level FlightAware
12:27PM 32.0390 -106.6030 287° West 413 475 32,000  Level FlightAware
12:28PM 32.0590 -106.6790 287° West 411 473 32,000  Level FlightAware
12:29PM 32.0840 -106.7820 286° West 411 473 32,000  Level FlightAware
12:29PM 32.1020 -106.8560 286° West 411 473 32,000  Level FlightAware
12:30PM 32.1190 -106.9290 285° West 411 473 32,000  Level FlightAware
12:31PM 32.1370 -107.0020 286° West 411 473 32,000  Level FlightAware
12:31PM 32.1550 -107.0760 286° West 411 473 32,000  Level FlightAware
12:32PM 32.1770 -107.1670 286° West 411 473 32,000  Level FlightAware
12:33PM 32.1950 -107.2410 286° West 411 473 32,000  Level FlightAware
12:33PM 32.2130 -107.3140 286° West 411 473 32,000  Level FlightAware
12:34PM 32.2310 -107.3880 286° West 411 473 32,000  Level FlightAware
12:35PM 32.2490 -107.4610 286° West 411 473 32,000  Level FlightAware
12:36PM 32.2710 -107.5530 286° West 411 473 32,000  Level FlightAware
12:36PM 32.2890 -107.6270 286° West 411 473 32,000  Level FlightAware
12:37PM 32.3060 -107.7000 285° West 411 473 32,000  Level FlightAware
12:38PM 32.3240 -107.7740 286° West 411 473 32,000  Level FlightAware
12:38PM 32.4030 -108.0770 287° West 32,000  Level FlightAware
12:39PM 32.4360 -108.2140 286° West 32,000  Level FlightAware
12:40PM 32.4650 -108.3390 285° West 425 489 32,000  Level FlightAware
12:41PM 32.4810 -108.4080 285° West 425 489 32,000  Level FlightAware
12:42PM 32.4980 -108.4840 285° West 425 489 32,000  Level FlightAware
12:42PM 32.5320 -108.6210 286° West 421 484 32,000  Level FlightAware
12:43PM 32.5520 -108.7090 285° West 420 483 32,000  Level FlightAware
12:44PM 32.5770 -108.8130 286° West 427 491 32,000  Level FlightAware
12:44PM 32.5980 -108.9030 286° West 428 493 32,000  Level FlightAware
12:45PM 32.6180 -108.9930 285° West 419 482 32,000  Level FlightAware
12:46PM 32.6410 -109.0900 286° West 415 478 32,000  Level FlightAware
12:47PM 32.6610 -109.1800 285° West 416 479 32,000  Level FlightAware
12:47PM 32.6850 -109.2810 286° West 419 482 32,000  Level FlightAware
12:48PM 32.7050 -109.3690 285° West 421 484 32,000  Level FlightAware
12:49PM 32.7270 -109.4680 285° West 420 483 32,000  Level FlightAware
12:49PM 32.7470 -109.5550 285° West 415 478 32,000  Level FlightAware
12:50PM 32.7670 -109.6440 285° West 413 475 32,000  Level FlightAware
12:51PM 32.7900 -109.7460 285° West 415 478 32,000  Level FlightAware
12:51PM 32.8020 -109.7970 286° West 411 473 32,000  Level FlightAware
12:52PM 32.8240 -109.8970 285° West 407 468 32,000  Level FlightAware
12:53PM 32.8430 -109.9820 285° West 404 465 32,000  Level FlightAware
12:53PM 32.8640 -110.0780 285° West 406 467 32,000  Level FlightAware
12:54PM 32.8840 -110.1650 285° West 408 470 32,000  Level FlightAware
12:55PM 32.9030 -110.2510 285° West 407 468 32,000  Level FlightAware
12:55PM 32.9250 -110.3510 285° West 400 460 32,000  Level FlightAware
12:56PM 32.9430 -110.4310 285° West 397 457 32,000  Level FlightAware
12:57PM 32.9620 -110.5190 284° West 397 457 32,000  Level FlightAware
12:58PM 32.9820 -110.6100 285° West 392 451 32,000  Level FlightAware
12:58PM 33.0000 -110.6930 285° West 386 444 32,000  Level FlightAware
12:59PM 33.0210 -110.7890 285° West 385 443 32,000  Level FlightAware
01:00PM 33.0390 -110.8710 285° West 387 445 32,000  Level FlightAware
01:00PM 33.0590 -110.9610 285° West 390 449 32,000  Level FlightAware
01:01PM 33.0770 -111.0450 284° West 392 451 32,000  Level FlightAware
01:02PM 33.0930 -111.1200 284° West 394 453 32,000  Level FlightAware
01:02PM 33.1160 -111.2260 285° West 395 455 32,000  Level FlightAware
01:03PM 33.1330 -111.3090 284° West 394 453 32,000  Level FlightAware
01:04PM 33.1530 -111.4020 284° West 393 452 32,000  Level FlightAware
01:05PM 33.1710 -111.4870 284° West 392 451 32,000  Level FlightAware
01:05PM 33.1810 -111.5710 278° West 389 448 32,000  Level FlightAware
01:06PM 33.1880 -111.6560 276° West 389 448 32,000  Level FlightAware
01:07PM 33.1950 -111.7520 275° West 386 444 32,000  Level FlightAware
01:07PM 33.2010 -111.8390 275° West 381 438 32,000  Level FlightAware
01:08PM 33.2070 -111.9270 275° West 378 435 32,000  Level FlightAware
01:09PM 33.2120 -112.0090 274° West 379 436 32,000  Level FlightAware
01:09PM 33.2190 -112.1090 275° West 380 437 32,000  Level FlightAware
01:10PM 33.2240 -112.1770 275° West 381 438 32,000  Level FlightAware
01:11PM 33.2310 -112.2850 274° West 381 438 32,000  Level FlightAware
01:12PM 33.2360 -112.3640 274° West 380 437 32,000  Level FlightAware
01:12PM 33.2410 -112.4490 274° West 377 434 32,000  Level FlightAware
01:13PM 33.2480 -112.5480 275° West 379 436 32,000  Level FlightAware
01:14PM 33.2530 -112.6310 274° West 380 437 32,000  Level FlightAware
01:14PM 33.2590 -112.7230 274° West 376 433 32,000  Level FlightAware
01:15PM 33.2640 -112.8060 274° West 371 427 32,000  Level FlightAware
01:16PM 33.2690 -112.8830 274° West 372 428 32,000  Level FlightAware
01:16PM 33.2750 -112.9800 274° West 369 425 32,000  Level FlightAware
01:17PM 33.2800 -113.0580 274° West 368 423 32,000  Level FlightAware
01:18PM 33.2840 -113.1230 274° West 368 423 32,000  Level FlightAware
01:19PM 33.2890 -113.2100 274° West 368 423 32,000  Level FlightAware
01:19PM 33.2950 -113.3100 274° West 371 427 32,000  Level FlightAware
01:20PM 33.3000 -113.3860 275° West 371 427 32,000  Level FlightAware
01:21PM 33.3050 -113.4780 274° West 372 428 32,000  Level FlightAware
01:21PM 33.3100 -113.5570 274° West 374 430 32,000 -60 Level FlightAware
01:22PM 33.3150 -113.6410 274° West 32,000 -120 Level FlightAware
01:23PM 33.3192 -113.7136 274° West 378 435 31,900  Descending Albuquerque Center
01:24PM 33.3256 -113.8372 274° West 376 433 32,000  Climbing Albuquerque Center
01:25PM 33.3331 -113.9600 274° West 373 429 32,000 -60 Level Albuquerque Center
01:26PM 33.3389 -114.0833 273° West 373 429 31,900  Descending Albuquerque Center
01:27PM 33.3467 -114.2314 274° West 373 429 32,000  Climbing Albuquerque Center
01:28PM 33.3525 -114.3539 273° West 371 427 31,900  Descending Albuquerque Center
01:29PM 33.3592 -114.4764 274° West 370 426 32,000  Climbing Albuquerque Center
01:31PM 33.3692 -114.7403 273° West 364 419 32,000 -60 Level Los Angeles Center
01:32PM 33.3753 -114.8600 274° West 363 418 31,900  Descending Los Angeles Center
01:38PM 33.4050 -115.5350 274° West 360 414 32,000  Climbing FlightAware
01:38PM 33.4090 -115.6220 273° West 361 415 32,000  Level FlightAware
01:39PM 33.4120 -115.7080 272° West 361 415 32,000  Level FlightAware
01:40PM 33.4140 -115.7840 272° West 360 414 32,000  Level FlightAware
01:40PM 33.4180 -115.8760 273° West 354 407 32,000  Level FlightAware
01:41PM 33.4200 -115.9570 272° West 355 409 32,000  Level FlightAware
01:42PM 33.4220 -116.0150 272° West 361 415 32,000  Level FlightAware
01:42PM 33.4250 -116.0930 273° West 370 426 32,000  Level FlightAware
01:43PM 33.4270 -116.1740 272° West 368 423 32,000  Level FlightAware
01:44PM 33.4300 -116.2680 272° West 361 415 32,000  Level FlightAware
01:44PM 33.4330 -116.3500 273° West 358 412 32,000  Level FlightAware
01:45PM 33.4350 -116.4300 272° West 365 420 32,000  Level FlightAware
01:46PM 33.4380 -116.5150 272° West 368 423 32,000  Level FlightAware
01:46PM 33.4400 -116.6010 272° West 369 425 32,000  Level FlightAware
01:47PM 33.4420 -116.6950 271° West 366 421 32,000  Level FlightAware
01:48PM 33.4440 -116.7670 272° West 361 415 32,000  Level FlightAware
01:48PM 33.4460 -116.8480 272° West 357 411 32,000  Level FlightAware
01:49PM 33.4490 -116.9420 272° West 353 406 32,000  Level FlightAware
01:50PM 33.4500 -117.0210 271° West 350 403 32,000  Level FlightAware
01:51PM 33.4520 -117.0950 272° West 348 400 32,000  Level FlightAware
01:51PM 33.4540 -117.1810 272° West 348 400 32,000  Level FlightAware
01:52PM 33.4560 -117.2580 272° West 352 405 32,000  Level FlightAware
01:53PM 33.4580 -117.3480 272° West 355 409 32,000  Level FlightAware
01:53PM 33.4590 -117.4270 271° West 359 413 32,000  Level FlightAware
01:54PM 33.4610 -117.5160 272° West 363 418 32,000  Level FlightAware
01:55PM 33.4620 -117.5950 271° West 371 427 32,000  Level FlightAware
01:55PM 33.4640 -117.6790 272° West 374 430 32,000  Level FlightAware
01:56PM 33.4650 -117.7690 271° West 377 434 32,000  Level FlightAware
01:57PM 33.4670 -117.8570 272° West 379 436 32,000  Level FlightAware
01:58PM 33.4680 -117.9420 271° West 378 435 32,000  Level FlightAware
01:58PM 33.4700 -118.0340 272° West 379 436 32,000  Level FlightAware
01:59PM 33.4710 -118.0960 271° West 379 436 32,000  Level FlightAware
01:59PM 33.4720 -118.1810 271° West 378 435 32,000  Level FlightAware
02:00PM 33.4730 -118.2630 271° West 376 433 32,000  Level FlightAware
02:01PM 33.4740 -118.3590 271° West 377 434 32,000  Level FlightAware
02:02PM 33.4750 -118.4430 271° West 378 435 32,000  Level FlightAware
02:02PM 33.4760 -118.5320 271° West 378 435 32,000  Level FlightAware
02:03PM 33.4770 -118.5970 271° West 379 436 32,000  Level FlightAware
02:04PM 33.4780 -118.6930 271° West 379 436 32,000  Level FlightAware
02:04PM 33.4780 -118.7780 270° West 382 440 32,000  Level FlightAware
02:05PM 33.4790 -118.8720 271° West 384 442 32,000  Level FlightAware
02:06PM 33.4800 -118.9500 271° West 386 444 32,000  Level FlightAware
02:06PM 33.4810 -119.0530 271° West 387 445 32,000  Level FlightAware
02:07PM 33.4820 -119.1400 271° West 389 448 32,000  Level FlightAware
02:08PM 33.4820 -119.2340 270° West 392 451 32,000  Level FlightAware
02:08PM 33.4830 -119.2920 271° West 392 451 32,000  Level FlightAware
02:09PM 33.4830 -119.4170 270° West 393 452 32,000  Level FlightAware
02:10PM 33.4840 -119.4950 271° West 394 453 32,000  Level FlightAware
02:11PM 33.4840 -119.6210 270° West 395 455 32,000  Level FlightAware
02:11PM 33.4850 -119.7000 271° West 395 455 32,000  Level FlightAware
02:12PM 33.4850 -119.7880 270° West 395 455 32,000  Level FlightAware
02:13PM 33.4850 -119.8620 270° West 395 455 32,000  Level FlightAware
02:14PM 33.4850 -119.9550 270° West 395 455 32,000  Level FlightAware
02:14PM 33.4850 -120.0300 270° West 395 455 32,000  Level FlightAware
02:15PM 33.4850 -120.1040 270° West 395 455 32,000  Level FlightAware
02:16PM 33.4850 -120.1790 270° West 395 455 32,000  Level FlightAware
02:16PM 33.4850 -120.2530 270° West 395 455 32,000 1,320 Level FlightAware
02:17PM 33.4860 -120.4240 270° West 378 435 34,000 1,320 Climbing FlightAware
02:18PM 33.4850 -120.4950 269° West 378 435 34,000  Level FlightAware
02:18PM 33.4840 -120.5660 269° West 378 435 34,000  Level FlightAware
02:19PM 33.4830 -120.6380 269° West 378 435 34,000  Level FlightAware
02:20PM 33.4870 -120.7770 272° West 390 449 34,000  Level FlightAware
02:21PM 33.4870 -120.8510 270° West 390 449 34,000  Level FlightAware
02:21PM 33.4870 -120.9240 270° West 390 449 34,000  Level FlightAware
02:22PM 33.4870 -121.0160 270° West 390 449 34,000  Level FlightAware
02:23PM 33.4870 -121.0900 270° West 390 449 34,000  Level FlightAware
02:23PM 33.4870 -121.1630 270° West 390 449 34,000  Level FlightAware
02:24PM 33.4870 -121.2370 270° West 390 449 34,000  Level FlightAware
02:25PM 33.4870 -121.3100 270° West 390 449 34,000  Level FlightAware
02:26PM 33.4870 -121.4020 270° West 390 449 34,000  Level FlightAware
02:26PM 33.4870 -121.4760 270° West 390 449 34,000  Level FlightAware
02:27PM 33.4870 -121.5490 270° West 390 449 34,000  Level FlightAware
02:28PM 33.4870 -121.6230 270° West 390 449 34,000  Level FlightAware
02:28PM 33.4870 -121.6970 270° West 390 449 34,000  Level FlightAware
02:29PM 33.4870 -121.7700 270° West 390 449 34,000 -60 Level FlightAware
02:30PM 33.4906 -122.1006 270° West 407 468 33,900 -60 Descending Los Angeles Center
02:31PM 33.4881 -122.2358 269° West 409 471 33,900  Level Los Angeles Center
02:32PM 33.4833 -122.3703 268° West 406 467 34,000  Climbing Los Angeles Center
02:33PM 33.4808 -122.5075 269° West 409 471 34,000  Level Los Angeles Center
02:35PM 33.4422 -122.7063 257° West  Level FlightAware Approximate
02:42PM 33.2506 -123.6444 257° West  Level FlightAware Approximate
02:43PM 33.2226 -123.7781 256° West  Level FlightAware Approximate
02:44PM 33.1945 -123.9117 256° West  Level FlightAware Approximate
02:45PM 33.1663 -124.0452 256° West  Level FlightAware Approximate
02:46PM 33.1379 -124.1786 256° West  Level FlightAware Approximate
02:47PM 33.1094 -124.3120 256° West  Level FlightAware Approximate
02:48PM 33.0781 -124.4439 239° Southwest  Level FlightAware Approximate
02:48PM 33.0667 -124.5167 255° West 432 497 34,000  Level Oakland Oceanic (ODAPS)
02:49PM 33.0535 -124.5756 255° West  Level FlightAware Approximate
02:50PM 33.0237 -124.7084 255° West  Level FlightAware Approximate
02:51PM 32.9938 -124.8412 255° West  Level FlightAware Approximate
02:52PM 32.9638 -124.9738 255° West  Level FlightAware Approximate
02:53PM 32.9336 -125.1064 255° West  Level FlightAware Approximate
02:54PM 32.8781 -125.3482 255° West 432 497 34,000  Level FlightAware Transoceanic
02:55PM 32.8461 -125.4864 255° West 432 497 34,000  Level FlightAware Transoceanic
02:55PM 32.8333 -125.5833 254° West 438 504 34,000  Level Oakland Oceanic (ODAPS)
02:56PM 32.8140 -125.6246 254° West 432 497 34,000  Level FlightAware Transoceanic
02:57PM 32.7818 -125.7626 254° West 432 497 34,000  Level FlightAware Transoceanic
02:58PM 32.7494 -125.9006 254° West 432 497 34,000  Level FlightAware Transoceanic
02:59PM 32.7168 -126.0384 254° West 432 497 34,000  Level FlightAware Transoceanic
03:00PM 32.6841 -126.1761 254° West 432 497 34,000  Level FlightAware Transoceanic
03:01PM 32.6512 -126.3138 254° West 432 497 34,000  Level FlightAware Transoceanic
03:02PM 32.6353 -126.4155 254° West 438 504 34,000  Level FlightAware Transoceanic
03:03PM 32.6018 -126.5538 254° West 438 504 34,000  Level FlightAware Transoceanic
03:04PM 32.5681 -126.6920 254° West 438 504 34,000  Level FlightAware Transoceanic
03:05PM 32.5342 -126.8301 254° West 438 504 34,000  Level FlightAware Transoceanic
03:06PM 32.5003 -126.9681 254° West 438 504 34,000  Level FlightAware Transoceanic
03:07PM 32.4661 -127.1061 254° West 438 504 34,000  Level FlightAware Transoceanic
03:08PM 32.4318 -127.2439 254° West 438 504 34,000  Level FlightAware Transoceanic
03:09PM 32.3974 -127.3816 253° West 438 504 34,000  Level FlightAware Transoceanic
03:09PM 32.3667 -127.5167 253° West 445 512 34,000  Level Oakland Oceanic (ODAPS)
03:10PM 32.3628 -127.5192 253° West 438 504 34,000  Level FlightAware Transoceanic
03:11PM 32.3281 -127.6566 253° West 438 504 34,000  Level FlightAware Transoceanic
03:12PM 32.2932 -127.7940 253° West 438 504 34,000  Level FlightAware Transoceanic
03:13PM 32.2581 -127.9313 253° West 438 504 34,000  Level FlightAware Transoceanic
03:14PM 32.2229 -128.0685 253° West 438 504 34,000  Level FlightAware Transoceanic
03:15PM 32.1876 -128.2056 253° West 438 504 34,000  Level FlightAware Transoceanic
03:16PM 32.1488 -128.3654 253° West 445 512 34,000  Level FlightAware Transoceanic
03:17PM 32.1120 -128.5065 253° West 445 512 34,000  Level FlightAware Transoceanic
03:18PM 32.0750 -128.6474 253° West 445 512 34,000  Level FlightAware Transoceanic
03:19PM 32.0378 -128.7882 253° West 445 512 34,000  Level FlightAware Transoceanic
03:20PM 32.0005 -128.9290 253° West 445 512 34,000  Level FlightAware Transoceanic
03:21PM 31.9630 -129.0695 253° West 445 512 34,000  Level FlightAware Transoceanic
03:22PM 31.9254 -129.2100 252° West 445 512 34,000  Level FlightAware Transoceanic
03:23PM 31.8876 -129.3504 252° West 445 512 34,000  Level FlightAware Transoceanic
03:23PM 31.8500 -129.4667 252° West 452 520 34,000  Level Oakland Oceanic (ODAPS)
03:24PM 31.8497 -129.4907 252° West 445 512 34,000  Level FlightAware Transoceanic
03:25PM 31.8116 -129.6308 252° West 445 512 34,000  Level FlightAware Transoceanic
03:26PM 31.7733 -129.7708 252° West 445 512 34,000  Level FlightAware Transoceanic
03:27PM 31.7349 -129.9107 252° West 445 512 34,000  Level FlightAware Transoceanic
03:28PM 31.6964 -130.0505 252° West 445 512 34,000  Level FlightAware Transoceanic
03:29PM 31.6192 -130.3134 252° West 452 520 34,000  Level FlightAware Transoceanic
03:30PM 31.5801 -130.4541 252° West 452 520 34,000  Level FlightAware Transoceanic
03:31PM 31.5410 -130.5947 252° West 452 520 34,000  Level FlightAware Transoceanic
03:32PM 31.5016 -130.7352 252° West 452 520 34,000  Level FlightAware Transoceanic
03:33PM 31.4622 -130.8755 252° West 452 520 34,000  Level FlightAware Transoceanic
03:34PM 31.4225 -131.0157 252° West 452 520 34,000  Level FlightAware Transoceanic
03:35PM 31.3827 -131.1559 252° West 452 520 34,000  Level FlightAware Transoceanic
03:36PM 31.3428 -131.2959 251° West 452 520 34,000  Level FlightAware Transoceanic
03:37PM 31.3027 -131.4357 251° West 452 520 34,000  Level FlightAware Transoceanic
03:37PM 31.3000 -131.4333 252° West 457 526 34,000  Level Oakland Oceanic (ODAPS)
03:38PM 31.2625 -131.5755 251° West 452 520 34,000  Level FlightAware Transoceanic
03:39PM 31.2221 -131.7151 251° West 452 520 34,000  Level FlightAware Transoceanic
03:40PM 31.1815 -131.8546 251° West 452 520 34,000  Level FlightAware Transoceanic
03:41PM 31.1408 -131.9940 251° West 452 520 34,000  Level FlightAware Transoceanic
03:42PM 31.1000 -132.1333 251° West 452 520 34,000  Level FlightAware Transoceanic
03:42PM 31.1000 -132.1333 251° West 460 529 34,000  Level Oakland Oceanic (ODAPS)
03:43PM 31.0585 -132.2743 251° West 457 526 34,000  Level FlightAware Transoceanic
03:44PM 31.0169 -132.4152 251° West 457 526 34,000  Level FlightAware Transoceanic
03:45PM 30.9751 -132.5559 251° West 457 526 34,000  Level FlightAware Transoceanic
03:46PM 30.9332 -132.6965 251° West 457 526 34,000  Level FlightAware Transoceanic
03:47PM 30.8911 -132.8370 251° West 457 526 34,000  Level FlightAware Transoceanic
03:48PM 30.8489 -132.9774 251° West 460 529 34,000  Level FlightAware Transoceanic
03:49PM 30.8065 -133.1176 251° West 460 529 34,000  Level FlightAware Transoceanic
03:50PM 30.7640 -133.2577 251° West 460 529 34,000  Level FlightAware Transoceanic
03:51PM 30.7213 -133.3977 250° West 460 529 34,000  Level FlightAware Transoceanic
03:51PM 30.7333 -133.4000 250° West 459 528 34,000  Level Oakland Oceanic (ODAPS)
03:52PM 30.6784 -133.5376 250° West 460 529 34,000  Level FlightAware Transoceanic
03:53PM 30.6354 -133.6773 250° West 460 529 34,000  Level FlightAware Transoceanic
03:54PM 30.5923 -133.8169 250° West 460 529 34,000  Level FlightAware Transoceanic
03:55PM 30.5490 -133.9564 250° West 460 529 34,000  Level FlightAware Transoceanic
03:56PM 30.5056 -134.0958 250° West 460 529 34,000  Level FlightAware Transoceanic
03:57PM 30.4724 -134.2371 250° West 459 528 34,000  Level FlightAware Transoceanic
03:58PM 30.4284 -134.3762 250° West 459 528 34,000  Level FlightAware Transoceanic
03:59PM 30.3843 -134.5151 250° West 459 528 34,000  Level FlightAware Transoceanic
04:00PM 30.3400 -134.6540 250° West 459 528 34,000  Level FlightAware Transoceanic
04:01PM 30.2955 -134.7927 250° West 459 528 34,000  Level FlightAware Transoceanic
04:02PM 30.2509 -134.9312 250° West 459 528 34,000  Level FlightAware Transoceanic
04:03PM 30.2062 -135.0697 249° West 459 528 34,000  Level FlightAware Transoceanic
04:04PM 30.1613 -135.2080 249° West 459 528 34,000  Level FlightAware Transoceanic
04:05PM 30.1163 -135.3462 249° West 459 528 34,000  Level FlightAware Transoceanic
04:05PM 30.1167 -135.3333 249° West 461 531 34,000  Level Oakland Oceanic (ODAPS)
04:06PM 30.0711 -135.4843 249° West 459 528 34,000  Level FlightAware Transoceanic
04:07PM 30.0258 -135.6222 249° West 459 528 34,000  Level FlightAware Transoceanic
04:08PM 29.9803 -135.7601 249° West 459 528 34,000  Level FlightAware Transoceanic
04:09PM 29.9347 -135.8977 249° West 459 528 34,000  Level FlightAware Transoceanic
04:10PM 29.8890 -136.0353 249° West 459 528 34,000  Level FlightAware Transoceanic
04:11PM 29.8435 -136.1625 249° West 461 531 34,000  Level FlightAware Transoceanic
04:12PM 29.7974 -136.3002 249° West 461 531 34,000  Level FlightAware Transoceanic
04:13PM 29.7512 -136.4378 249° West 461 531 34,000  Level FlightAware Transoceanic
04:14PM 29.7049 -136.5753 249° West 461 531 34,000  Level FlightAware Transoceanic
04:15PM 29.6585 -136.7127 249° West 461 531 34,000  Level FlightAware Transoceanic
04:16PM 29.6119 -136.8499 249° West 461 531 34,000  Level FlightAware Transoceanic
04:17PM 29.5651 -136.9870 249° West 461 531 34,000  Level FlightAware Transoceanic
04:18PM 29.5182 -137.1240 248° West 461 531 34,000  Level FlightAware Transoceanic
04:19PM 29.4712 -137.2609 248° West 461 531 34,000  Level FlightAware Transoceanic
04:19PM 29.4833 -137.2500 248° West 460 529 34,000  Level Oakland Oceanic (ODAPS)
04:20PM 29.4240 -137.3976 248° West 461 531 34,000  Level FlightAware Transoceanic
04:21PM 29.3767 -137.5342 248° West 461 531 34,000  Level FlightAware Transoceanic
04:22PM 29.3293 -137.6707 248° West 461 531 34,000  Level FlightAware Transoceanic
04:23PM 29.2817 -137.8071 248° West 461 531 34,000  Level FlightAware Transoceanic
04:24PM 29.2340 -137.9433 248° West 461 531 34,000  Level FlightAware Transoceanic
04:25PM 29.1937 -138.0726 248° West 460 529 34,000  Level FlightAware Transoceanic
04:26PM 29.1450 -138.2093 248° West 460 529 34,000  Level FlightAware Transoceanic
04:27PM 29.0961 -138.3458 248° West 460 529 34,000  Level FlightAware Transoceanic
04:28PM 29.0471 -138.4822 248° West 460 529 34,000  Level FlightAware Transoceanic
04:29PM 28.9979 -138.6185 248° West 460 529 34,000  Level FlightAware Transoceanic
04:30PM 28.9486 -138.7546 247° West 460 529 34,000  Level FlightAware Transoceanic
04:31PM 28.8991 -138.8906 247° West 460 529 34,000  Level FlightAware Transoceanic
04:32PM 28.8496 -139.0265 247° West 460 529 34,000  Level FlightAware Transoceanic
04:32PM 28.8167 -139.1333 246° West 463 533 34,000  Level Oakland Oceanic (ODAPS)
04:33PM 28.7998 -139.1622 247° West 460 529 34,000  Level FlightAware Transoceanic
04:34PM 28.7500 -139.2979 247° West 460 529 34,000  Level FlightAware Transoceanic
04:35PM 28.7000 -139.4333 247° West 460 529 34,000  Level FlightAware Transoceanic
04:35PM 28.7000 -139.4333 247° West 464 534 34,000  Level Oakland Oceanic (ODAPS)
04:36PM 28.6493 -139.5712 247° West 460 529 34,000  Level FlightAware Transoceanic
04:37PM 28.5984 -139.7090 247° West 460 529 34,000  Level FlightAware Transoceanic
04:38PM 28.5473 -139.8466 247° West 460 529 34,000  Level FlightAware Transoceanic
04:39PM 28.4962 -139.9842 247° West 463 533 34,000  Level FlightAware Transoceanic
04:40PM 28.4449 -140.1215 247° West 463 533 34,000  Level FlightAware Transoceanic
04:41PM 28.3995 -140.2426 247° West 464 534 34,000  Level FlightAware Transoceanic
04:42PM 28.3489 -140.3771 247° West 464 534 34,000  Level FlightAware Transoceanic
04:43PM 28.2983 -140.5114 247° West 464 534 34,000  Level FlightAware Transoceanic
04:44PM 28.2474 -140.6456 247° West 464 534 34,000  Level FlightAware Transoceanic
04:45PM 28.1965 -140.7796 247° West 464 534 34,000  Level FlightAware Transoceanic
04:46PM 28.1454 -140.9135 247° West 464 534 34,000  Level FlightAware Transoceanic
04:46PM 28.1167 -141.0000 246° West 465 535 34,000  Level Oakland Oceanic (ODAPS)
04:47PM 28.0942 -141.0473 247° West 464 534 34,000  Level FlightAware Transoceanic
04:48PM 28.0429 -141.1810 246° West 464 534 34,000  Level FlightAware Transoceanic
04:49PM 27.9914 -141.3145 246° West 464 534 34,000  Level FlightAware Transoceanic
04:50PM 27.9398 -141.4479 246° West 464 534 34,000  Level FlightAware Transoceanic
04:51PM 27.8881 -141.5812 246° West 464 534 34,000  Level FlightAware Transoceanic
04:52PM 27.8362 -141.7144 246° West 464 534 34,000  Level FlightAware Transoceanic
04:53PM 27.8035 -141.8076 246° West 465 535 34,000  Level FlightAware Transoceanic
04:54PM 27.7509 -141.9418 246° West 465 535 34,000  Level FlightAware Transoceanic
04:55PM 27.6981 -142.0758 246° West 465 535 34,000  Level FlightAware Transoceanic
04:56PM 27.6452 -142.2097 246° West 465 535 34,000  Level FlightAware Transoceanic
04:57PM 27.5921 -142.3434 246° West 465 535 34,000  Level FlightAware Transoceanic
04:58PM 27.5390 -142.4771 246° West 465 535 34,000  Level FlightAware Transoceanic
04:59PM 27.4857 -142.6106 246° West 465 535 34,000  Level FlightAware Transoceanic
05:00PM 27.4322 -142.7440 246° West 465 535 34,000  Level FlightAware Transoceanic
05:00PM 27.3833 -142.8667 246° West 470 541 34,000  Level Oakland Oceanic (ODAPS)
05:01PM 27.3787 -142.8772 246° West 465 535 34,000  Level FlightAware Transoceanic
05:02PM 27.3250 -143.0103 246° West 465 535 34,000  Level FlightAware Transoceanic
05:03PM 27.2712 -143.1433 245° Southwest 465 535 34,000  Level FlightAware Transoceanic
05:04PM 27.2173 -143.2762 245° Southwest 465 535 34,000  Level FlightAware Transoceanic
05:05PM 27.1632 -143.4089 245° Southwest 465 535 34,000  Level FlightAware Transoceanic
05:06PM 27.1091 -143.5415 245° Southwest 465 535 34,000  Level FlightAware Transoceanic
05:07PM 27.0037 -143.7988 245° Southwest 470 541 34,000  Level FlightAware Transoceanic
05:08PM 26.9490 -143.9314 245° Southwest 470 541 34,000  Level FlightAware Transoceanic
05:09PM 26.8942 -144.0639 245° Southwest 470 541 34,000  Level FlightAware Transoceanic
05:10PM 26.8392 -144.1963 245° Southwest 470 541 34,000  Level FlightAware Transoceanic
05:11PM 26.7841 -144.3286 245° Southwest 470 541 34,000  Level FlightAware Transoceanic
05:12PM 26.7289 -144.4607 245° Southwest 470 541 34,000  Level FlightAware Transoceanic
05:13PM 26.6735 -144.5927 245° Southwest 470 541 34,000  Level FlightAware Transoceanic
05:14PM 26.6180 -144.7245 245° Southwest 470 541 34,000  Level FlightAware Transoceanic
05:14PM 26.6167 -144.7167 245° Southwest 473 544 34,000  Level Oakland Oceanic (ODAPS)
05:15PM 26.5625 -144.8563 245° Southwest 470 541 34,000  Level FlightAware Transoceanic
05:16PM 26.5068 -144.9879 245° Southwest 470 541 34,000  Level FlightAware Transoceanic
05:17PM 26.4509 -145.1194 245° Southwest 470 541 34,000  Level FlightAware Transoceanic
05:18PM 26.3950 -145.2507 245° Southwest 470 541 34,000  Level FlightAware Transoceanic
05:19PM 26.3389 -145.3820 244° Southwest 470 541 34,000  Level FlightAware Transoceanic
05:20PM 26.2821 -145.5095 245° Southwest 473 544 34,000  Level FlightAware Transoceanic
05:21PM 26.2259 -145.6412 245° Southwest 473 544 34,000  Level FlightAware Transoceanic
05:22PM 26.1696 -145.7727 244° Southwest 473 544 34,000  Level FlightAware Transoceanic
05:23PM 26.1132 -145.9042 244° Southwest 473 544 34,000  Level FlightAware Transoceanic
05:24PM 26.0567 -146.0355 244° Southwest 473 544 34,000  Level FlightAware Transoceanic
05:25PM 26.0000 -146.1667 244° Southwest 473 544 34,000  Level FlightAware Transoceanic
05:25PM 26.0000 -146.1667 244° Southwest 471 542 34,000  Level Oakland Oceanic (ODAPS)
05:26PM 25.9431 -146.2980 244° Southwest 473 544 34,000  Level FlightAware Transoceanic
05:27PM 25.8860 -146.4293 244° Southwest 473 544 34,000  Level FlightAware Transoceanic
05:28PM 25.8289 -146.5604 244° Southwest 473 544 34,000  Level FlightAware Transoceanic
05:28PM 25.8333 -146.5500 244° Southwest 471 542 34,000  Level Oakland Oceanic (ODAPS)
05:29PM 25.7716 -146.6914 244° Southwest 473 544 34,000  Level FlightAware Transoceanic
05:30PM 25.7142 -146.8222 244° Southwest 473 544 34,000  Level FlightAware Transoceanic
05:31PM 25.6567 -146.9530 244° Southwest 471 542 34,000  Level FlightAware Transoceanic
05:32PM 25.5990 -147.0836 244° Southwest 471 542 34,000  Level FlightAware Transoceanic
05:33PM 25.5413 -147.2140 244° Southwest 471 542 34,000  Level FlightAware Transoceanic
05:34PM 25.4874 -147.3354 244° Southwest 471 542 34,000  Level FlightAware Transoceanic
05:35PM 25.4293 -147.4659 244° Southwest 471 542 34,000  Level FlightAware Transoceanic
05:36PM 25.3711 -147.5962 244° Southwest 471 542 34,000  Level FlightAware Transoceanic
05:37PM 25.3128 -147.7264 244° Southwest 471 542 34,000  Level FlightAware Transoceanic
05:38PM 25.2544 -147.8565 244° Southwest 471 542 34,000  Level FlightAware Transoceanic
05:39PM 25.1959 -147.9864 244° Southwest 471 542 34,000  Level FlightAware Transoceanic
05:40PM 25.1373 -148.1163 243° Southwest 471 542 34,000  Level FlightAware Transoceanic
05:41PM 25.0785 -148.2460 243° Southwest 471 542 34,000  Level FlightAware Transoceanic
05:42PM 25.0197 -148.3755 243° Southwest 471 542 34,000  Level FlightAware Transoceanic
05:42PM 25.0333 -148.3667 243° Southwest 468 539 34,000  Level Oakland Oceanic (ODAPS)
05:43PM 24.9607 -148.5050 243° Southwest 471 542 34,000  Level FlightAware Transoceanic
05:44PM 24.9016 -148.6343 243° Southwest 471 542 34,000  Level FlightAware Transoceanic
05:45PM 24.8424 -148.7635 243° Southwest 471 542 34,000  Level FlightAware Transoceanic
05:46PM 24.7831 -148.8926 243° Southwest 471 542 34,000  Level FlightAware Transoceanic
05:47PM 24.7237 -149.0216 243° Southwest 471 542 34,000  Level FlightAware Transoceanic
05:48PM 24.6754 -149.1432 243° Southwest 468 539 34,000  Level FlightAware Transoceanic
05:49PM 24.6153 -149.2722 243° Southwest 468 539 34,000  Level FlightAware Transoceanic
05:50PM 24.5552 -149.4011 243° Southwest 468 539 34,000  Level FlightAware Transoceanic
05:51PM 24.4949 -149.5299 243° Southwest 468 539 34,000  Level FlightAware Transoceanic
05:52PM 24.4345 -149.6585 243° Southwest 468 539 34,000  Level FlightAware Transoceanic
05:53PM 24.3740 -149.7870 243° Southwest 468 539 34,000  Level FlightAware Transoceanic
05:54PM 24.3134 -149.9154 243° Southwest 468 539 34,000  Level FlightAware Transoceanic
05:55PM 24.2527 -150.0436 243° Southwest 468 539 34,000  Level FlightAware Transoceanic
05:56PM 24.1919 -150.1718 242° Southwest 468 539 34,000  Level FlightAware Transoceanic
05:56PM 24.2167 -150.1167 243° Southwest 457 526 34,000  Level Oakland Oceanic (ODAPS)
05:57PM 24.1310 -150.2998 242° Southwest 468 539 34,000  Level FlightAware Transoceanic
05:58PM 24.0700 -150.4276 242° Southwest 468 539 34,000  Level FlightAware Transoceanic
05:59PM 24.0089 -150.5554 242° Southwest 468 539 34,000  Level FlightAware Transoceanic
06:00PM 23.9476 -150.6831 242° Southwest 468 539 34,000  Level FlightAware Transoceanic
06:01PM 23.8863 -150.8106 242° Southwest 468 539 34,000  Level FlightAware Transoceanic
06:02PM 23.8608 -150.8614 242° Southwest 457 526 34,000  Level FlightAware Transoceanic
06:03PM 23.8011 -150.9852 242° Southwest 457 526 34,000  Level FlightAware Transoceanic
06:04PM 23.7414 -151.1088 242° Southwest 457 526 34,000  Level FlightAware Transoceanic
06:05PM 23.6815 -151.2323 242° Southwest 457 526 34,000  Level FlightAware Transoceanic
06:06PM 23.6215 -151.3557 242° Southwest 457 526 34,000  Level FlightAware Transoceanic
06:07PM 23.5615 -151.4789 242° Southwest 457 526 34,000  Level FlightAware Transoceanic
06:08PM 23.5013 -151.6021 242° Southwest 457 526 34,000  Level FlightAware Transoceanic
06:09PM 23.4411 -151.7251 242° Southwest 457 526 34,000  Level FlightAware Transoceanic
06:10PM 23.3807 -151.8481 242° Southwest 457 526 34,000  Level FlightAware Transoceanic
06:10PM 23.4000 -151.8333 241° Southwest 462 532 34,000  Level Oakland Oceanic (ODAPS)
06:11PM 23.3203 -151.9709 242° Southwest 457 526 34,000  Level FlightAware Transoceanic
06:12PM 23.2598 -152.0936 242° Southwest 457 526 34,000  Level FlightAware Transoceanic
06:13PM 23.1991 -152.2162 242° Southwest 457 526 34,000  Level FlightAware Transoceanic
06:14PM 23.1384 -152.3387 242° Southwest 457 526 34,000  Level FlightAware Transoceanic
06:15PM 23.0776 -152.4611 242° Southwest 457 526 34,000  Level FlightAware Transoceanic
06:16PM 23.0167 -152.5833 242° Southwest 462 532 34,000  Level FlightAware Transoceanic
06:16PM 22.9833 -152.6500 242° Southwest 470 541 34,000  Level Honolulu Center
06:17PM 22.9580 -152.7020 242° Southwest 462 532 34,000  Level FlightAware Transoceanic
06:17PM 22.9167 -152.7667 238° Southwest 470 541 34,000  Level Honolulu Center
06:18PM 22.8993 -152.8206 242° Southwest 462 532 34,000  Level FlightAware Transoceanic
06:18PM 22.8667 -152.8667 242° Southwest 460 529 34,000  Level Honolulu Center
06:19PM 22.8404 -152.9391 242° Southwest 462 532 34,000  Level FlightAware Transoceanic
06:19PM 22.8000 -153.0167 244° Southwest 470 541 34,000  Level Honolulu Center
06:20PM 22.7815 -153.0575 242° Southwest 462 532 34,000  Level FlightAware Transoceanic
06:20PM 22.7667 -153.1500 255° West 460 529 34,000  Level Honolulu Center
06:21PM 22.7225 -153.1758 242° Southwest 462 532 34,000  Level FlightAware Transoceanic
06:21PM 22.7333 -153.2833 255° West 470 541 34,000  Level Honolulu Center
06:22PM 22.6833 -153.4167 248° West 470 541 34,000  Level Honolulu Center
06:23PM 22.6500 -153.5500 255° West 460 529 34,000  Level Honolulu Center
06:24PM 22.6167 -153.6833 255° West 460 529 34,000  Level Honolulu Center
06:25PM 22.5667 -153.8167 248° West 460 529 34,000  Level Honolulu Center
06:26PM 22.5333 -153.9500 255° West 460 529 34,000  Level Honolulu Center
06:27PM 22.4833 -154.0833 248° West 460 529 34,000  Level Honolulu Center
06:28PM 22.4500 -154.2167 255° West 460 529 34,000  Level Honolulu Center
06:29PM 22.4167 -154.3500 255° West 470 541 34,000  Level Honolulu Center
06:30PM 22.3667 -154.4833 248° West 460 529 34,000  Level Honolulu Center
06:31PM 22.3333 -154.6167 255° West 460 529 34,000  Level Honolulu Center
06:32PM 22.2833 -154.7500 248° West 460 529 34,000  Level Honolulu Center
06:33PM 22.2500 -154.8833 255° West 460 529 34,000  Level Honolulu Center
06:34PM 22.2167 -155.0000 253° West 460 529 34,000  Level Honolulu Center
06:35PM 22.1667 -155.1333 248° West 460 529 34,000  Level Honolulu Center
06:36PM 22.1333 -155.2667 255° West 460 529 34,000  Level Honolulu Center
06:37PM 22.0833 -155.4000 248° West 460 529 34,000  Level Honolulu Center
06:38PM 22.0500 -155.5333 255° West 460 529 34,000  Level Honolulu Center
06:39PM 22.0000 -155.6667 248° West 460 529 34,000  Level Honolulu Center
06:40PM 21.9667 -155.7833 253° West 460 529 34,000  Level Honolulu Center
06:41PM 21.9167 -155.9167 248° West 460 529 34,000  Level Honolulu Center
06:42PM 21.8833 -156.0500 255° West 450 518 34,000 -540 Level Honolulu Center
06:43PM 21.8333 -156.1833 248° West 460 529 33,000 -1,860 Descending Honolulu Center
06:44PM 21.8000 -156.3000 253° West 460 529 30,300 -2,400 Descending Honolulu Center
06:45PM 21.7667 -156.4333 255° West 450 518 28,200 -2,100 Descending Honolulu Center
06:46PM 21.7167 -156.5500 245° Southwest 440 506 26,100 -2,220 Descending Honolulu Center
06:47PM 21.6833 -156.6667 253° West 430 495 23,800 -2,340 Descending Honolulu Center
06:48PM 21.6333 -156.8000 248° West 410 472 21,500 -2,280 Descending Honolulu Center
06:49PM 21.6000 -156.9167 253° West 410 472 19,300 -2,160 Descending Honolulu Center
06:50PM 21.5667 -157.0333 253° West 410 472 17,200 -2,100 Descending Honolulu Center
06:51PM 21.5333 -157.1500 253° West 400 460 15,100 -2,040 Descending Honolulu Center
06:52PM 21.4833 -157.2500 242° Southwest 390 449 13,100 -2,040 Descending Honolulu Center
06:53PM 21.4500 -157.3667 253° West 380 437 11,100 -720 Descending Honolulu Center
06:58PM 21.3240 -157.8480 253° West 292 336 9,000 -480 Descending FlightAware
06:59PM 21.3120 -157.8820 249° West 289 333 8,500 -1,320 Descending FlightAware
06:59PM 21.3020 -157.9110 250° West 292 336 7,900 -1,140 Descending FlightAware
07:00PM 21.2680 -158.0020 248° West 296 341 6,800 -1,020 Descending FlightAware